NOZ55AW EKCH-ENTC
Flight info
| Callsign | NOZ55AW |
|---|---|
| Flight time | 2h 9m |
| Altitude | 39000 |
| Route | VEDAR2C VEDAR DCT PENNO DCT ATWEG ATWEG2M |
| Aircraft | B38M/M-SDE1FGHILORVWXY/HB1 |
Departure
| Time | 2026-05-07 20:10 |
|---|---|
| Airport | Copenhagen Kastrup Airport (EKCH) |
Arrival
| Time | 2026-05-07 22:19 |
|---|---|
| Airport | Tromsø Airport (ENTC) |
| Time | Latitude | Longitude | Altitude | Speed | Heading |
|---|---|---|---|---|---|
| 2026-05-07 19:16 | 55.62700 | 12.64162 | 30 ft | 0 kts | 32° |
| 2026-05-07 19:57 | 55.62686 | 12.64146 | 30 ft | 4 kts | 37° |
| 2026-05-07 19:58 | 55.62667 | 12.64116 | 28 ft | 4 kts | 51° |
| 2026-05-07 19:58 | 55.62655 | 12.64077 | 29 ft | 4 kts | 84° |
| 2026-05-07 19:58 | 55.62658 | 12.64049 | 30 ft | 0 kts | 123° |
| 2026-05-07 20:02 | 55.62655 | 12.64055 | 26 ft | 2 kts | 123° |
| 2026-05-07 20:02 | 55.62643 | 12.64090 | 29 ft | 5 kts | 123° |
| 2026-05-07 20:02 | 55.62616 | 12.64162 | 26 ft | 9 kts | 123° |
| 2026-05-07 20:02 | 55.62574 | 12.64274 | 29 ft | 13 kts | 124° |
| 2026-05-07 20:03 | 55.62521 | 12.64416 | 29 ft | 17 kts | 123° |
| 2026-05-07 20:03 | 55.62454 | 12.64600 | 26 ft | 18 kts | 124° |
| 2026-05-07 20:03 | 55.62387 | 12.64781 | 28 ft | 17 kts | 122° |
| 2026-05-07 20:03 | 55.62317 | 12.64965 | 26 ft | 18 kts | 122° |
| 2026-05-07 20:04 | 55.62253 | 12.65144 | 26 ft | 16 kts | 127° |
| 2026-05-07 20:04 | 55.62177 | 12.65148 | 26 ft | 10 kts | 221° |
| 2026-05-07 20:04 | 55.62121 | 12.65076 | 26 ft | 11 kts | 213° |
| 2026-05-07 20:04 | 55.62051 | 12.64995 | 27 ft | 13 kts | 213° |
| 2026-05-07 20:05 | 55.61965 | 12.64896 | 27 ft | 16 kts | 215° |
| 2026-05-07 20:05 | 55.61873 | 12.64781 | 29 ft | 17 kts | 209° |
| 2026-05-07 20:05 | 55.61768 | 12.64668 | 29 ft | 19 kts | 211° |
| 2026-05-07 20:05 | 55.61655 | 12.64538 | 27 ft | 20 kts | 213° |
| 2026-05-07 20:06 | 55.61532 | 12.64400 | 26 ft | 22 kts | 212° |
| 2026-05-07 20:06 | 55.61402 | 12.64251 | 26 ft | 23 kts | 213° |
| 2026-05-07 20:06 | 55.61264 | 12.64092 | 30 ft | 24 kts | 212° |
| 2026-05-07 20:06 | 55.61122 | 12.63926 | 29 ft | 25 kts | 214° |
| 2026-05-07 20:07 | 55.60981 | 12.63766 | 27 ft | 21 kts | 213° |
| 2026-05-07 20:07 | 55.60864 | 12.63636 | 27 ft | 14 kts | 212° |
| 2026-05-07 20:07 | 55.60770 | 12.63631 | 27 ft | 15 kts | 137° |
| 2026-05-07 20:07 | 55.60702 | 12.63787 | 27 ft | 17 kts | 114° |
| 2026-05-07 20:08 | 55.60737 | 12.63960 | 28 ft | 16 kts | 40° |
| 2026-05-07 20:08 | 55.60743 | 12.63969 | 28 ft | 0 kts | 41° |
| 2026-05-07 20:09 | 55.60856 | 12.64146 | 28 ft | 61 kts | 42° |
| 2026-05-07 20:09 | 55.61354 | 12.64898 | 27 ft | 132 kts | 39° |
| 2026-05-07 20:09 | 55.62156 | 12.66115 | 106 ft | 180 kts | 40° |
| 2026-05-07 20:10 | 55.64119 | 12.69203 | 1944 ft | 184 kts | 40° |
| 2026-05-07 20:10 | 55.65170 | 12.70712 | 2547 ft | 206 kts | 27° |
| 2026-05-07 20:10 | 55.66625 | 12.71292 | 3071 ft | 231 kts | 355° |
| 2026-05-07 20:10 | 55.68125 | 12.70283 | 4089 ft | 231 kts | 323° |
| 2026-05-07 20:11 | 55.69339 | 12.68282 | 5013 ft | 247 kts | 315° |
| 2026-05-07 20:11 | 55.70583 | 12.66027 | 5799 ft | 264 kts | 315° |
| 2026-05-07 20:11 | 55.71870 | 12.63688 | 6889 ft | 266 kts | 315° |
| 2026-05-07 20:11 | 55.73181 | 12.61298 | 7801 ft | 275 kts | 315° |
| 2026-05-07 20:12 | 55.74527 | 12.58834 | 8759 ft | 280 kts | 315° |
| 2026-05-07 20:12 | 55.75897 | 12.56318 | 9717 ft | 287 kts | 315° |
| 2026-05-07 20:12 | 55.77298 | 12.53732 | 10562 ft | 296 kts | 315° |
| 2026-05-07 20:12 | 55.78772 | 12.51024 | 11083 ft | 315 kts | 315° |
| 2026-05-07 20:13 | 55.80335 | 12.48168 | 11646 ft | 329 kts | 315° |
| 2026-05-07 20:13 | 55.81958 | 12.45219 | 12408 ft | 336 kts | 315° |
| 2026-05-07 20:13 | 55.83601 | 12.42260 | 13340 ft | 338 kts | 315° |
| 2026-05-07 20:13 | 55.85260 | 12.39281 | 14155 ft | 342 kts | 315° |
| 2026-05-07 20:14 | 55.87072 | 12.36552 | 14893 ft | 345 kts | 332° |
| 2026-05-07 20:14 | 55.89361 | 12.35350 | 15643 ft | 348 kts | 354° |
| 2026-05-07 20:14 | 55.91775 | 12.34791 | 16293 ft | 353 kts | 348° |
| 2026-05-07 20:14 | 55.94184 | 12.33923 | 17019 ft | 356 kts | 348° |
| 2026-05-07 20:15 | 55.96627 | 12.33043 | 17728 ft | 360 kts | 348° |
| 2026-05-07 20:15 | 55.99088 | 12.32156 | 18432 ft | 363 kts | 348° |
| 2026-05-07 20:15 | 56.01574 | 12.31258 | 18951 ft | 368 kts | 348° |
| 2026-05-07 20:15 | 56.04092 | 12.30347 | 19109 ft | 369 kts | 348° |
| 2026-05-07 20:16 | 56.06607 | 12.29436 | 19217 ft | 370 kts | 348° |
| 2026-05-07 20:16 | 56.09128 | 12.28523 | 19814 ft | 370 kts | 348° |
| 2026-05-07 20:16 | 56.11665 | 12.27602 | 20395 ft | 374 kts | 348° |
| 2026-05-07 20:16 | 56.14223 | 12.26672 | 20958 ft | 377 kts | 348° |
| 2026-05-07 20:17 | 56.16805 | 12.25732 | 21520 ft | 380 kts | 348° |
| 2026-05-07 20:17 | 56.19408 | 12.24784 | 22064 ft | 383 kts | 348° |
| 2026-05-07 20:17 | 56.22034 | 12.23825 | 22616 ft | 387 kts | 348° |
| 2026-05-07 20:17 | 56.24680 | 12.22857 | 23157 ft | 390 kts | 348° |
| 2026-05-07 20:18 | 56.27343 | 12.21883 | 23727 ft | 392 kts | 348° |
| 2026-05-07 20:18 | 56.30026 | 12.20900 | 24153 ft | 395 kts | 348° |
| 2026-05-07 20:18 | 56.32725 | 12.19908 | 24591 ft | 398 kts | 348° |
| 2026-05-07 20:18 | 56.35444 | 12.18909 | 25044 ft | 400 kts | 348° |
| 2026-05-07 20:19 | 56.38174 | 12.17906 | 25470 ft | 402 kts | 348° |
| 2026-05-07 20:19 | 56.40923 | 12.16892 | 25879 ft | 405 kts | 348° |
| 2026-05-07 20:19 | 56.43655 | 12.15883 | 26289 ft | 408 kts | 348° |
| 2026-05-07 20:19 | 56.46444 | 12.14853 | 26678 ft | 410 kts | 348° |
| 2026-05-07 20:20 | 56.49250 | 12.13814 | 27090 ft | 413 kts | 348° |
| 2026-05-07 20:20 | 56.52074 | 12.12832 | 27477 ft | 415 kts | 353° |
| 2026-05-07 20:20 | 56.54960 | 12.12927 | 27937 ft | 416 kts | 7° |
| 2026-05-07 20:20 | 56.57847 | 12.13562 | 28259 ft | 420 kts | 6° |
| 2026-05-07 20:21 | 56.60759 | 12.14206 | 28631 ft | 423 kts | 6° |
| 2026-05-07 20:21 | 56.63685 | 12.14884 | 29011 ft | 425 kts | 7° |
| 2026-05-07 20:21 | 56.66621 | 12.15580 | 29346 ft | 427 kts | 7° |
| 2026-05-07 20:21 | 56.69579 | 12.16288 | 29723 ft | 430 kts | 7° |
| 2026-05-07 20:22 | 56.72553 | 12.17002 | 30071 ft | 432 kts | 7° |
| 2026-05-07 20:22 | 56.75536 | 12.17720 | 30380 ft | 434 kts | 7° |
| 2026-05-07 20:22 | 56.78541 | 12.18445 | 30678 ft | 436 kts | 7° |
| 2026-05-07 20:22 | 56.81554 | 12.19173 | 30973 ft | 438 kts | 6° |
| 2026-05-07 20:23 | 56.84577 | 12.19904 | 31263 ft | 440 kts | 6° |
| 2026-05-07 20:23 | 56.87610 | 12.20640 | 31557 ft | 441 kts | 6° |
| 2026-05-07 20:23 | 56.90660 | 12.21380 | 31837 ft | 443 kts | 7° |
| 2026-05-07 20:23 | 56.93721 | 12.22124 | 32127 ft | 445 kts | 7° |
| 2026-05-07 20:24 | 56.96798 | 12.22874 | 32406 ft | 446 kts | 7° |
| 2026-05-07 20:24 | 56.99883 | 12.23626 | 32675 ft | 448 kts | 7° |
| 2026-05-07 20:24 | 57.02979 | 12.24383 | 32986 ft | 449 kts | 7° |
| 2026-05-07 20:24 | 57.06060 | 12.25137 | 33385 ft | 448 kts | 6° |
| 2026-05-07 20:25 | 57.09148 | 12.25894 | 33772 ft | 446 kts | 6° |
| 2026-05-07 20:25 | 57.12220 | 12.26648 | 34165 ft | 445 kts | 6° |
| 2026-05-07 20:25 | 57.15284 | 12.27401 | 34472 ft | 444 kts | 6° |
| 2026-05-07 20:25 | 57.18351 | 12.28158 | 34724 ft | 445 kts | 6° |
| 2026-05-07 20:26 | 57.21384 | 12.28906 | 34973 ft | 446 kts | 6° |
| 2026-05-07 20:26 | 57.24459 | 12.29666 | 35225 ft | 446 kts | 6° |
| 2026-05-07 20:26 | 57.27538 | 12.30429 | 35471 ft | 447 kts | 6° |
| 2026-05-07 20:26 | 57.30622 | 12.31194 | 35717 ft | 448 kts | 6° |
| 2026-05-07 20:27 | 57.33707 | 12.31962 | 35971 ft | 448 kts | 6° |
| 2026-05-07 20:27 | 57.36798 | 12.32731 | 36205 ft | 449 kts | 6° |
| 2026-05-07 20:27 | 57.39896 | 12.33503 | 36440 ft | 450 kts | 6° |
| 2026-05-07 20:27 | 57.42996 | 12.34277 | 36662 ft | 450 kts | 6° |
| 2026-05-07 20:28 | 57.46104 | 12.35055 | 36887 ft | 451 kts | 6° |
| 2026-05-07 20:28 | 57.49213 | 12.35834 | 37101 ft | 451 kts | 6° |
| 2026-05-07 20:28 | 57.52330 | 12.36617 | 37315 ft | 452 kts | 6° |
| 2026-05-07 20:28 | 57.55443 | 12.37400 | 37521 ft | 452 kts | 6° |
| 2026-05-07 20:29 | 57.58560 | 12.38186 | 37719 ft | 453 kts | 6° |
| 2026-05-07 20:29 | 57.61677 | 12.38972 | 37929 ft | 453 kts | 5° |
| 2026-05-07 20:29 | 57.64810 | 12.39764 | 38101 ft | 454 kts | 5° |
| 2026-05-07 20:29 | 57.67942 | 12.40558 | 38298 ft | 454 kts | 5° |
| 2026-05-07 20:30 | 57.71078 | 12.41353 | 38466 ft | 455 kts | 5° |
| 2026-05-07 20:30 | 57.74210 | 12.42149 | 38653 ft | 455 kts | 5° |
| 2026-05-07 20:30 | 57.77354 | 12.42950 | 38820 ft | 456 kts | 5° |
| 2026-05-07 20:30 | 57.80498 | 12.43752 | 38952 ft | 456 kts | 5° |
| 2026-05-07 20:31 | 57.83637 | 12.44554 | 39087 ft | 456 kts | 5° |
| 2026-05-07 20:31 | 57.89935 | 12.46167 | 39159 ft | 457 kts | 5° |
| 2026-05-07 20:32 | 57.96227 | 12.47785 | 39160 ft | 456 kts | 5° |
| 2026-05-07 20:32 | 58.02527 | 12.49410 | 39155 ft | 457 kts | 5° |
| 2026-05-07 20:33 | 58.08824 | 12.51041 | 39153 ft | 457 kts | 5° |
| 2026-05-07 20:33 | 58.15116 | 12.52675 | 39154 ft | 457 kts | 5° |
| 2026-05-07 20:34 | 58.21415 | 12.54318 | 39157 ft | 457 kts | 5° |
| 2026-05-07 20:34 | 58.27711 | 12.55966 | 39156 ft | 457 kts | 5° |
| 2026-05-07 20:35 | 58.34003 | 12.57618 | 39157 ft | 457 kts | 5° |
| 2026-05-07 20:35 | 58.40299 | 12.59278 | 39156 ft | 457 kts | 5° |
| 2026-05-07 20:36 | 58.46600 | 12.60944 | 39157 ft | 458 kts | 5° |
| 2026-05-07 20:36 | 58.52919 | 12.62622 | 39157 ft | 458 kts | 5° |
| 2026-05-07 20:37 | 58.59238 | 12.64305 | 39113 ft | 459 kts | 5° |
| 2026-05-07 20:37 | 58.65542 | 12.65992 | 39158 ft | 458 kts | 5° |
| 2026-05-07 20:38 | 58.71863 | 12.67689 | 39169 ft | 459 kts | 4° |
| 2026-05-07 20:38 | 58.78186 | 12.69392 | 39159 ft | 459 kts | 4° |
| 2026-05-07 20:39 | 58.84504 | 12.71101 | 39152 ft | 459 kts | 4° |
| 2026-05-07 20:39 | 58.90829 | 12.72817 | 39154 ft | 459 kts | 4° |
| 2026-05-07 20:40 | 58.97150 | 12.74539 | 39151 ft | 459 kts | 5° |
| 2026-05-07 20:40 | 59.03481 | 12.76270 | 39159 ft | 460 kts | 4° |
| 2026-05-07 20:41 | 59.09813 | 12.78008 | 39151 ft | 460 kts | 4° |
| 2026-05-07 20:41 | 59.16158 | 12.79755 | 39152 ft | 460 kts | 4° |
| 2026-05-07 20:42 | 59.22499 | 12.81509 | 39151 ft | 460 kts | 4° |
| 2026-05-07 20:42 | 59.28843 | 12.83269 | 39161 ft | 461 kts | 4° |
| 2026-05-07 20:43 | 59.35177 | 12.85034 | 39152 ft | 461 kts | 4° |
| 2026-05-07 20:43 | 59.41526 | 12.86809 | 39149 ft | 461 kts | 4° |
| 2026-05-07 20:44 | 59.47870 | 12.88590 | 39151 ft | 460 kts | 4° |
| 2026-05-07 20:44 | 59.54171 | 12.90365 | 39167 ft | 461 kts | 4° |
| 2026-05-07 20:45 | 59.60514 | 12.92159 | 39148 ft | 460 kts | 4° |
| 2026-05-07 20:45 | 59.66861 | 12.93961 | 39149 ft | 461 kts | 4° |
| 2026-05-07 20:46 | 59.73205 | 12.95769 | 39153 ft | 461 kts | 4° |
| 2026-05-07 20:46 | 59.79544 | 12.97582 | 39152 ft | 461 kts | 4° |
| 2026-05-07 20:47 | 59.84861 | 12.99109 | 39168 ft | 461 kts | 3° |
| 2026-05-07 20:47 | 59.91209 | 13.00938 | 39153 ft | 461 kts | 3° |
| 2026-05-07 20:48 | 59.97498 | 13.02754 | 39154 ft | 461 kts | 4° |
| 2026-05-07 20:48 | 60.03847 | 13.04601 | 39157 ft | 461 kts | 4° |
| 2026-05-07 20:49 | 60.10184 | 13.06448 | 39161 ft | 461 kts | 4° |
| 2026-05-07 20:49 | 60.16517 | 13.08301 | 39156 ft | 460 kts | 3° |
| 2026-05-07 20:50 | 60.22847 | 13.10160 | 39152 ft | 460 kts | 3° |
| 2026-05-07 20:50 | 60.29183 | 13.12029 | 39159 ft | 461 kts | 3° |
| 2026-05-07 20:51 | 60.35522 | 13.13906 | 39162 ft | 460 kts | 3° |
| 2026-05-07 20:51 | 60.41864 | 13.15790 | 39183 ft | 461 kts | 3° |
| 2026-05-07 20:52 | 60.48212 | 13.17685 | 39163 ft | 461 kts | 3° |
| 2026-05-07 20:52 | 60.54557 | 13.19586 | 39167 ft | 462 kts | 3° |
| 2026-05-07 20:53 | 60.60906 | 13.21496 | 39174 ft | 461 kts | 3° |
| 2026-05-07 20:53 | 60.67137 | 13.23369 | 39205 ft | 461 kts | 5° |
| 2026-05-07 20:54 | 60.73503 | 13.25306 | 39160 ft | 465 kts | 3° |
| 2026-05-07 20:54 | 60.79835 | 13.27234 | 39170 ft | 464 kts | 4° |
| 2026-05-07 20:55 | 60.86227 | 13.29187 | 39165 ft | 464 kts | 4° |
| 2026-05-07 20:55 | 60.92614 | 13.31147 | 39169 ft | 464 kts | 3° |
| 2026-05-07 20:56 | 60.99001 | 13.33115 | 39164 ft | 464 kts | 4° |
| 2026-05-07 20:56 | 61.05384 | 13.35090 | 39175 ft | 464 kts | 4° |
| 2026-05-07 20:57 | 61.11768 | 13.37073 | 39170 ft | 464 kts | 4° |
| 2026-05-07 20:57 | 61.18145 | 13.39061 | 39175 ft | 463 kts | 4° |
| 2026-05-07 20:58 | 61.24528 | 13.41060 | 39172 ft | 464 kts | 4° |
| 2026-05-07 20:58 | 61.30895 | 13.43063 | 39187 ft | 463 kts | 4° |
| 2026-05-07 20:59 | 61.37259 | 13.45071 | 39179 ft | 462 kts | 4° |
| 2026-05-07 20:59 | 61.43618 | 13.47088 | 39189 ft | 462 kts | 4° |
| 2026-05-07 21:00 | 61.49977 | 13.49112 | 39186 ft | 462 kts | 4° |
| 2026-05-07 21:00 | 61.56332 | 13.51143 | 39224 ft | 462 kts | 4° |
| 2026-05-07 21:01 | 61.62683 | 13.53183 | 39201 ft | 461 kts | 4° |
| 2026-05-07 21:01 | 61.69023 | 13.55225 | 39195 ft | 461 kts | 4° |
| 2026-05-07 21:02 | 61.75366 | 13.57279 | 39197 ft | 461 kts | 4° |
| 2026-05-07 21:02 | 61.81706 | 13.59339 | 39196 ft | 461 kts | 4° |
| 2026-05-07 21:03 | 61.88053 | 13.61410 | 39212 ft | 462 kts | 4° |
| 2026-05-07 21:03 | 61.94410 | 13.63494 | 39196 ft | 463 kts | 4° |
| 2026-05-07 21:04 | 62.00777 | 13.65590 | 39197 ft | 463 kts | 4° |
| 2026-05-07 21:04 | 62.07102 | 13.67680 | 39196 ft | 463 kts | 4° |
| 2026-05-07 21:05 | 62.13465 | 13.69793 | 39191 ft | 463 kts | 4° |
| 2026-05-07 21:05 | 62.19828 | 13.71913 | 39202 ft | 463 kts | 3° |
| 2026-05-07 21:06 | 62.26179 | 13.74039 | 39205 ft | 462 kts | 3° |
| 2026-05-07 21:06 | 62.32529 | 13.76174 | 39197 ft | 463 kts | 4° |
| 2026-05-07 21:07 | 62.38888 | 13.78321 | 39208 ft | 463 kts | 4° |
| 2026-05-07 21:07 | 62.45252 | 13.80480 | 39230 ft | 462 kts | 4° |
| 2026-05-07 21:08 | 62.51598 | 13.82641 | 39202 ft | 461 kts | 4° |
| 2026-05-07 21:08 | 62.57944 | 13.84812 | 39213 ft | 462 kts | 4° |
| 2026-05-07 21:09 | 62.64296 | 13.86994 | 39215 ft | 462 kts | 4° |
| 2026-05-07 21:09 | 62.70642 | 13.89183 | 39220 ft | 462 kts | 4° |
| 2026-05-07 21:10 | 62.76995 | 13.91384 | 39234 ft | 462 kts | 4° |
| 2026-05-07 21:10 | 62.83332 | 13.93590 | 39222 ft | 461 kts | 4° |
| 2026-05-07 21:11 | 62.89673 | 13.95807 | 39222 ft | 461 kts | 4° |
| 2026-05-07 21:11 | 62.99184 | 13.99149 | 39225 ft | 462 kts | 4° |
| 2026-05-07 21:12 | 63.05522 | 14.01389 | 39251 ft | 461 kts | 4° |
| 2026-05-07 21:12 | 63.11851 | 14.03635 | 39232 ft | 461 kts | 4° |
| 2026-05-07 21:13 | 63.18181 | 14.05893 | 39222 ft | 461 kts | 4° |
| 2026-05-07 21:13 | 63.24514 | 14.08160 | 39184 ft | 462 kts | 4° |
| 2026-05-07 21:14 | 63.30840 | 14.10436 | 39226 ft | 462 kts | 4° |
| 2026-05-07 21:14 | 63.37164 | 14.12721 | 39252 ft | 462 kts | 4° |
| 2026-05-07 21:15 | 63.43483 | 14.15014 | 39227 ft | 462 kts | 4° |
| 2026-05-07 21:15 | 63.49809 | 14.17320 | 39223 ft | 462 kts | 4° |
| 2026-05-07 21:16 | 63.56146 | 14.19641 | 39226 ft | 462 kts | 4° |
| 2026-05-07 21:16 | 63.62492 | 14.21975 | 39224 ft | 462 kts | 4° |
| 2026-05-07 21:17 | 63.68782 | 14.24299 | 39235 ft | 463 kts | 4° |
| 2026-05-07 21:17 | 63.75196 | 14.26681 | 39218 ft | 463 kts | 5° |
| 2026-05-07 21:18 | 63.81549 | 14.29050 | 39225 ft | 463 kts | 5° |
| 2026-05-07 21:18 | 63.87861 | 14.31414 | 39223 ft | 463 kts | 5° |
| 2026-05-07 21:19 | 63.94217 | 14.33805 | 39219 ft | 463 kts | 5° |
| 2026-05-07 21:19 | 64.00564 | 14.36205 | 39220 ft | 463 kts | 5° |
| 2026-05-07 21:20 | 64.06920 | 14.38620 | 39217 ft | 463 kts | 5° |
| 2026-05-07 21:20 | 64.13279 | 14.41045 | 39216 ft | 463 kts | 5° |
| 2026-05-07 21:21 | 64.19631 | 14.43481 | 39218 ft | 463 kts | 5° |
| 2026-05-07 21:21 | 64.25981 | 14.45926 | 39220 ft | 463 kts | 5° |
| 2026-05-07 21:22 | 64.32343 | 14.48387 | 39215 ft | 464 kts | 5° |
| 2026-05-07 21:22 | 64.38701 | 14.50859 | 39215 ft | 464 kts | 5° |
| 2026-05-07 21:23 | 64.45068 | 14.53346 | 39213 ft | 464 kts | 5° |
| 2026-05-07 21:23 | 64.51427 | 14.55840 | 39217 ft | 464 kts | 5° |
| 2026-05-07 21:24 | 64.57797 | 14.58353 | 39233 ft | 464 kts | 5° |
| 2026-05-07 21:24 | 64.64169 | 14.60877 | 39210 ft | 465 kts | 5° |
| 2026-05-07 21:25 | 64.70547 | 14.63416 | 39206 ft | 465 kts | 5° |
| 2026-05-07 21:25 | 64.76920 | 14.65965 | 39201 ft | 465 kts | 5° |
| 2026-05-07 21:26 | 64.83296 | 14.68528 | 39201 ft | 465 kts | 5° |
| 2026-05-07 21:26 | 64.89681 | 14.71106 | 39218 ft | 465 kts | 6° |
| 2026-05-07 21:27 | 64.96049 | 14.73689 | 39194 ft | 464 kts | 6° |
| 2026-05-07 21:27 | 65.02418 | 14.76287 | 39192 ft | 465 kts | 6° |
| 2026-05-07 21:28 | 65.08786 | 14.78895 | 39192 ft | 464 kts | 6° |
| 2026-05-07 21:28 | 65.15158 | 14.81518 | 39186 ft | 465 kts | 6° |
| 2026-05-07 21:29 | 65.21523 | 14.84153 | 39216 ft | 465 kts | 6° |
| 2026-05-07 21:29 | 65.27881 | 14.86795 | 39186 ft | 464 kts | 6° |
| 2026-05-07 21:30 | 65.34243 | 14.89453 | 39187 ft | 464 kts | 6° |
| 2026-05-07 21:30 | 65.40560 | 14.92106 | 39180 ft | 464 kts | 6° |
| 2026-05-07 21:31 | 65.46925 | 14.94790 | 39183 ft | 464 kts | 6° |
| 2026-05-07 21:31 | 65.53283 | 14.97487 | 39198 ft | 464 kts | 6° |
| 2026-05-07 21:32 | 65.59649 | 15.00199 | 39158 ft | 464 kts | 6° |
| 2026-05-07 21:32 | 65.66013 | 15.02924 | 39132 ft | 464 kts | 6° |
| 2026-05-07 21:33 | 65.72381 | 15.05664 | 39131 ft | 465 kts | 6° |
| 2026-05-07 21:33 | 65.77672 | 15.07952 | 39127 ft | 465 kts | 6° |
| 2026-05-07 21:34 | 65.84040 | 15.10718 | 39147 ft | 465 kts | 7° |
| 2026-05-07 21:34 | 65.90409 | 15.13498 | 39127 ft | 464 kts | 7° |
| 2026-05-07 21:35 | 65.96766 | 15.16287 | 39147 ft | 465 kts | 7° |
| 2026-05-07 21:35 | 66.03132 | 15.19094 | 39161 ft | 465 kts | 7° |
| 2026-05-07 21:36 | 66.09495 | 15.21915 | 39182 ft | 465 kts | 7° |
| 2026-05-07 21:36 | 66.15857 | 15.24748 | 39195 ft | 465 kts | 7° |
| 2026-05-07 21:37 | 66.22222 | 15.27597 | 39180 ft | 465 kts | 7° |
| 2026-05-07 21:37 | 66.28588 | 15.30463 | 39183 ft | 465 kts | 7° |
| 2026-05-07 21:38 | 66.34954 | 15.33342 | 39183 ft | 465 kts | 7° |
| 2026-05-07 21:38 | 66.41318 | 15.36235 | 39172 ft | 465 kts | 7° |
| 2026-05-07 21:39 | 66.47689 | 15.39148 | 39187 ft | 465 kts | 7° |
| 2026-05-07 21:39 | 66.54066 | 15.42077 | 39174 ft | 466 kts | 7° |
| 2026-05-07 21:40 | 66.60441 | 15.45022 | 39171 ft | 466 kts | 7° |
| 2026-05-07 21:40 | 66.66817 | 15.47982 | 39166 ft | 466 kts | 7° |
| 2026-05-07 21:41 | 66.73194 | 15.50958 | 39168 ft | 466 kts | 7° |
| 2026-05-07 21:41 | 66.79570 | 15.53949 | 39180 ft | 466 kts | 7° |
| 2026-05-07 21:42 | 66.85941 | 15.56950 | 39177 ft | 466 kts | 8° |
| 2026-05-07 21:42 | 66.92312 | 15.59970 | 39160 ft | 466 kts | 8° |
| 2026-05-07 21:43 | 66.98685 | 15.63003 | 39156 ft | 466 kts | 8° |
| 2026-05-07 21:43 | 67.05056 | 15.66053 | 39159 ft | 466 kts | 8° |
| 2026-05-07 21:44 | 67.11429 | 15.69120 | 39157 ft | 466 kts | 8° |
| 2026-05-07 21:44 | 67.17759 | 15.72182 | 39154 ft | 466 kts | 8° |
| 2026-05-07 21:45 | 67.24125 | 15.75277 | 39164 ft | 466 kts | 8° |
| 2026-05-07 21:45 | 67.30497 | 15.78393 | 39153 ft | 466 kts | 8° |
| 2026-05-07 21:46 | 67.36868 | 15.81525 | 39163 ft | 466 kts | 8° |
| 2026-05-07 21:46 | 67.43241 | 15.84675 | 39169 ft | 466 kts | 8° |
| 2026-05-07 21:47 | 67.49602 | 15.87834 | 39158 ft | 466 kts | 8° |
| 2026-05-07 21:47 | 67.55969 | 15.91015 | 39153 ft | 466 kts | 8° |
| 2026-05-07 21:48 | 67.62335 | 15.94212 | 39154 ft | 466 kts | 8° |
| 2026-05-07 21:48 | 67.68702 | 15.97428 | 39151 ft | 466 kts | 8° |
| 2026-05-07 21:49 | 67.75066 | 16.00659 | 39169 ft | 466 kts | 8° |
| 2026-05-07 21:49 | 67.81413 | 16.03899 | 39153 ft | 465 kts | 8° |
| 2026-05-07 21:50 | 67.87768 | 16.07161 | 39149 ft | 465 kts | 8° |
| 2026-05-07 21:50 | 67.94058 | 16.11170 | 39122 ft | 468 kts | 22° |
| 2026-05-07 21:51 | 67.99813 | 16.19323 | 39127 ft | 471 kts | 26° |
| 2026-05-07 21:51 | 68.05575 | 16.27668 | 39149 ft | 471 kts | 26° |
| 2026-05-07 21:52 | 68.11324 | 16.36113 | 39139 ft | 471 kts | 27° |
| 2026-05-07 21:52 | 68.17032 | 16.44548 | 38856 ft | 467 kts | 27° |
| 2026-05-07 21:53 | 68.19893 | 16.48793 | 37858 ft | 473 kts | 27° |
| 2026-05-07 21:53 | 68.22785 | 16.53101 | 36991 ft | 476 kts | 27° |
| 2026-05-07 21:53 | 68.25673 | 16.57413 | 36454 ft | 472 kts | 27° |
| 2026-05-07 21:53 | 68.28523 | 16.61680 | 36078 ft | 464 kts | 27° |
| 2026-05-07 21:54 | 68.31326 | 16.65888 | 35635 ft | 459 kts | 27° |
| 2026-05-07 21:54 | 68.34111 | 16.70082 | 35102 ft | 457 kts | 27° |
| 2026-05-07 21:54 | 68.36882 | 16.74266 | 34538 ft | 456 kts | 27° |
| 2026-05-07 21:54 | 68.39643 | 16.78449 | 33927 ft | 455 kts | 27° |
| 2026-05-07 21:55 | 68.42364 | 16.82581 | 33317 ft | 452 kts | 28° |
| 2026-05-07 21:55 | 68.45096 | 16.86741 | 32782 ft | 448 kts | 28° |
| 2026-05-07 21:55 | 68.47801 | 16.90872 | 32304 ft | 443 kts | 28° |
| 2026-05-07 21:55 | 68.50478 | 16.94971 | 31805 ft | 439 kts | 28° |
| 2026-05-07 21:56 | 68.53130 | 16.99043 | 31290 ft | 436 kts | 28° |
| 2026-05-07 21:56 | 68.55761 | 17.03094 | 30801 ft | 432 kts | 28° |
| 2026-05-07 21:56 | 68.58371 | 17.07122 | 30306 ft | 429 kts | 28° |
| 2026-05-07 21:56 | 68.60963 | 17.11135 | 29733 ft | 426 kts | 28° |
| 2026-05-07 21:57 | 68.63527 | 17.15114 | 29217 ft | 421 kts | 28° |
| 2026-05-07 21:57 | 68.66059 | 17.19055 | 28779 ft | 415 kts | 29° |
| 2026-05-07 21:57 | 68.68556 | 17.22951 | 28326 ft | 410 kts | 29° |
| 2026-05-07 21:57 | 68.71025 | 17.26812 | 27866 ft | 406 kts | 29° |
| 2026-05-07 21:58 | 68.73459 | 17.30629 | 27433 ft | 401 kts | 29° |
| 2026-05-07 21:58 | 68.75869 | 17.34417 | 27016 ft | 396 kts | 30° |
| 2026-05-07 21:58 | 68.78250 | 17.38170 | 26593 ft | 392 kts | 30° |
| 2026-05-07 21:58 | 68.80607 | 17.41895 | 26176 ft | 388 kts | 30° |
| 2026-05-07 21:59 | 68.82938 | 17.45587 | 25774 ft | 385 kts | 30° |
| 2026-05-07 21:59 | 68.85247 | 17.49254 | 25374 ft | 381 kts | 30° |
| 2026-05-07 21:59 | 68.87535 | 17.52896 | 24978 ft | 378 kts | 30° |
| 2026-05-07 21:59 | 68.89805 | 17.56518 | 24589 ft | 375 kts | 30° |
| 2026-05-07 22:00 | 68.92054 | 17.60113 | 24206 ft | 372 kts | 30° |
| 2026-05-07 22:00 | 68.94287 | 17.63694 | 23829 ft | 369 kts | 30° |
| 2026-05-07 22:00 | 68.96505 | 17.67254 | 23394 ft | 367 kts | 30° |
| 2026-05-07 22:00 | 68.98702 | 17.70789 | 22978 ft | 363 kts | 30° |
| 2026-05-07 22:01 | 69.00874 | 17.74291 | 22618 ft | 358 kts | 30° |
| 2026-05-07 22:01 | 69.03018 | 17.77755 | 22249 ft | 354 kts | 30° |
| 2026-05-07 22:01 | 69.05134 | 17.81179 | 21885 ft | 350 kts | 29° |
| 2026-05-07 22:01 | 69.07380 | 17.83670 | 21454 ft | 347 kts | 10° |
| 2026-05-07 22:02 | 69.09742 | 17.84758 | 21143 ft | 342 kts | 9° |
| 2026-05-07 22:02 | 69.12070 | 17.85879 | 20815 ft | 338 kts | 8° |
| 2026-05-07 22:02 | 69.14377 | 17.86971 | 20474 ft | 334 kts | 8° |
| 2026-05-07 22:02 | 69.16657 | 17.88043 | 20136 ft | 331 kts | 8° |
| 2026-05-07 22:03 | 69.18914 | 17.89101 | 19796 ft | 328 kts | 8° |
| 2026-05-07 22:03 | 69.21150 | 17.90148 | 19469 ft | 325 kts | 8° |
| 2026-05-07 22:03 | 69.23365 | 17.91186 | 19136 ft | 322 kts | 8° |
| 2026-05-07 22:03 | 69.25565 | 17.92218 | 18815 ft | 319 kts | 7° |
| 2026-05-07 22:04 | 69.27741 | 17.93241 | 18501 ft | 316 kts | 7° |
| 2026-05-07 22:04 | 69.29907 | 17.94261 | 18135 ft | 314 kts | 7° |
| 2026-05-07 22:04 | 69.32024 | 17.95259 | 17796 ft | 311 kts | 7° |
| 2026-05-07 22:04 | 69.34172 | 17.96274 | 17484 ft | 307 kts | 7° |
| 2026-05-07 22:05 | 69.36265 | 17.97265 | 17160 ft | 303 kts | 7° |
| 2026-05-07 22:05 | 69.38334 | 17.98288 | 16830 ft | 302 kts | 11° |
| 2026-05-07 22:05 | 69.40300 | 18.00507 | 16456 ft | 308 kts | 24° |
| 2026-05-07 22:05 | 69.42215 | 18.03172 | 16156 ft | 312 kts | 24° |
| 2026-05-07 22:06 | 69.44167 | 18.05892 | 15849 ft | 313 kts | 24° |
| 2026-05-07 22:06 | 69.46117 | 18.08625 | 15533 ft | 312 kts | 24° |
| 2026-05-07 22:06 | 69.48059 | 18.11356 | 15219 ft | 311 kts | 24° |
| 2026-05-07 22:06 | 69.49996 | 18.14087 | 14903 ft | 310 kts | 24° |
| 2026-05-07 22:07 | 69.51931 | 18.16824 | 14578 ft | 310 kts | 24° |
| 2026-05-07 22:07 | 69.53860 | 18.19554 | 14259 ft | 310 kts | 24° |
| 2026-05-07 22:07 | 69.55787 | 18.22290 | 13939 ft | 309 kts | 24° |
| 2026-05-07 22:07 | 69.57705 | 18.25019 | 13572 ft | 307 kts | 24° |
| 2026-05-07 22:08 | 69.59603 | 18.27724 | 13235 ft | 303 kts | 24° |
| 2026-05-07 22:08 | 69.61476 | 18.30398 | 12946 ft | 298 kts | 24° |
| 2026-05-07 22:08 | 69.63322 | 18.33041 | 12618 ft | 295 kts | 24° |
| 2026-05-07 22:08 | 69.65147 | 18.35657 | 12329 ft | 291 kts | 24° |
| 2026-05-07 22:09 | 69.66952 | 18.38249 | 12011 ft | 288 kts | 24° |
| 2026-05-07 22:09 | 69.68738 | 18.40819 | 11722 ft | 285 kts | 24° |
| 2026-05-07 22:09 | 69.70499 | 18.43357 | 11426 ft | 282 kts | 24° |
| 2026-05-07 22:09 | 69.72242 | 18.45875 | 11128 ft | 280 kts | 25° |
| 2026-05-07 22:10 | 69.73974 | 18.48375 | 10784 ft | 278 kts | 24° |
| 2026-05-07 22:10 | 69.75690 | 18.50866 | 10535 ft | 276 kts | 25° |
| 2026-05-07 22:10 | 69.77421 | 18.53382 | 10298 ft | 280 kts | 25° |
| 2026-05-07 22:10 | 69.79150 | 18.55900 | 10157 ft | 276 kts | 25° |
| 2026-05-07 22:11 | 69.80857 | 18.58388 | 9958 ft | 275 kts | 25° |
| 2026-05-07 22:11 | 69.82566 | 18.60886 | 9636 ft | 275 kts | 25° |
| 2026-05-07 22:11 | 69.84268 | 18.63376 | 9318 ft | 273 kts | 25° |
| 2026-05-07 22:11 | 69.85952 | 18.65846 | 9032 ft | 270 kts | 25° |
| 2026-05-07 22:12 | 69.87625 | 18.68301 | 8745 ft | 268 kts | 25° |
| 2026-05-07 22:12 | 69.89283 | 18.70741 | 8470 ft | 266 kts | 25° |
| 2026-05-07 22:12 | 69.90903 | 18.73128 | 8331 ft | 258 kts | 26° |
| 2026-05-07 22:12 | 69.92511 | 18.75502 | 7919 ft | 260 kts | 26° |
| 2026-05-07 22:13 | 69.94121 | 18.77964 | 7310 ft | 263 kts | 32° |
| 2026-05-07 22:13 | 69.95337 | 18.81877 | 6681 ft | 266 kts | 65° |
| 2026-05-07 22:13 | 69.95646 | 18.87128 | 6062 ft | 266 kts | 96° |
| 2026-05-07 22:13 | 69.95263 | 18.92381 | 5468 ft | 266 kts | 103° |
| 2026-05-07 22:14 | 69.94849 | 18.97607 | 5050 ft | 259 kts | 103° |
| 2026-05-07 22:14 | 69.94434 | 19.02564 | 4990 ft | 248 kts | 110° |
| 2026-05-07 22:14 | 69.93463 | 19.06538 | 4975 ft | 243 kts | 145° |
| 2026-05-07 22:14 | 69.91926 | 19.08479 | 5029 ft | 243 kts | 172° |
| 2026-05-07 22:15 | 69.90255 | 19.08160 | 5024 ft | 242 kts | 198° |
| 2026-05-07 22:15 | 69.88690 | 19.06334 | 5013 ft | 243 kts | 201° |
| 2026-05-07 22:15 | 69.87088 | 19.04739 | 4992 ft | 243 kts | 197° |
| 2026-05-07 22:15 | 69.85429 | 19.03420 | 4537 ft | 252 kts | 194° |
| 2026-05-07 22:16 | 69.83717 | 19.02222 | 4093 ft | 252 kts | 193° |
| 2026-05-07 22:16 | 69.82022 | 19.01078 | 3664 ft | 248 kts | 193° |
| 2026-05-07 22:16 | 69.80395 | 18.99981 | 3224 ft | 231 kts | 193° |
| 2026-05-07 22:16 | 69.78884 | 18.98962 | 2806 ft | 215 kts | 193° |
| 2026-05-07 22:17 | 69.77483 | 18.98019 | 2483 ft | 198 kts | 193° |
| 2026-05-07 22:17 | 69.76213 | 18.97165 | 2149 ft | 177 kts | 193° |
| 2026-05-07 22:17 | 69.75097 | 18.96416 | 1806 ft | 158 kts | 193° |
| 2026-05-07 22:17 | 69.74053 | 18.95716 | 1470 ft | 146 kts | 193° |
| 2026-05-07 22:18 | 69.73083 | 18.95065 | 1172 ft | 142 kts | 193° |
| 2026-05-07 22:18 | 69.71492 | 18.93996 | 679 ft | 141 kts | 193° |
| 2026-05-07 22:18 | 69.70535 | 18.93347 | 398 ft | 142 kts | 192° |
| 2026-05-07 22:19 | 69.69569 | 18.92726 | 134 ft | 142 kts | 193° |
| 2026-05-07 22:19 | 69.68288 | 18.91871 | 33 ft | 130 kts | 192° |
| 2026-05-07 22:19 | 69.67821 | 18.91560 | 43 ft | 55 kts | 193° |
| 2026-05-07 22:19 | 69.67618 | 18.91335 | 42 ft | 13 kts | 256° |
| 2026-05-07 22:20 | 69.67628 | 18.91161 | 37 ft | 14 kts | 289° |
| 2026-05-07 22:20 | 69.67675 | 18.91039 | 37 ft | 7 kts | 357° |
| 2026-05-07 22:20 | 69.67725 | 18.91067 | 37 ft | 9 kts | 12° |
| 2026-05-07 22:20 | 69.67792 | 18.91110 | 37 ft | 11 kts | 12° |
| 2026-05-07 22:21 | 69.67874 | 18.91165 | 37 ft | 13 kts | 13° |
| 2026-05-07 22:21 | 69.67974 | 18.91230 | 37 ft | 16 kts | 13° |
| 2026-05-07 22:21 | 69.68028 | 18.91245 | 35 ft | 0 kts | 324° |
| 2026-05-07 22:21 | 69.68029 | 18.91238 | 35 ft | 1 kts | 296° |
| 2026-05-07 22:22 | 69.68029 | 18.91237 | 35 ft | 0 kts | 295° |
| 2026-05-07 22:22 | 69.68029 | 18.91234 | 35 ft | 2 kts | 295° |
| 2026-05-07 22:22 | 69.68032 | 18.91214 | 37 ft | 1 kts | 290° |
| 2026-05-07 22:22 | 69.68041 | 18.91087 | 37 ft | 5 kts | 282° |
| 2026-05-07 22:23 | 69.68047 | 18.91020 | 37 ft | 1 kts | 283° |
| 2026-05-07 22:23 | 69.68050 | 18.90982 | 37 ft | 0 kts | 283° |
| 2026-05-07 22:23 | 69.68050 | 18.90981 | 37 ft | 0 kts | 283° |